Skipperville, Alabama
Current Conditions -  °F | °C
As of 12:53 PM on Thursday 23 Oct 2014 (Local Time) from KHEY Reporting Station
Clear Clear  
Wind Chill: 70°   Ceiling: Unl
Heat Index: 70°   Visibility: 10mi
Dew Point: 43°   Wind: 3mph
Humidity: 38%   Direction: NA
Pressure: 30.07"   Gusts: NA
Location:  31.56°N, 85.55°W
Report Text: KHEY 231753Z AUTO VRB03KT 10SM CLR 21/06 A3007 RMK AO2 SLP170 T02110061 10222 20072 58015
Loading
Personal Weather Stations






























Interactive Weather Map
Tropical Storm Tracking
New forecast layout! Learn more

10-Day Weather Forecast

Advertisements
Track Severe Weather on mobile